Time;durP1;ratioP1;P1;durP2;ratioP2;P2;SDS_P1;SDS_P2;PMS_P1;PMS_P2;Temp;Humidity;BMP_temperature;BMP_pressure;BME280_temperature;BME280_humidity;BME280_pressure;Samples;Min_cycle;Max_cycle;Signal;HPM_P1;HPM_P2
2022/10/04 00:00:24;;;;;;;11.32;4.07;;;13.70;99.90;;;;;;6265863;22;20058;-79
2022/10/04 00:02:51;;;;;;;12.85;4.47;;;13.70;99.90;;;;;;6266788;22;20016;-79
2022/10/04 00:05:21;;;;;;;11.30;4.30;;;13.60;99.90;;;;;;6241011;22;20459;-79
2022/10/04 00:07:52;;;;;;;10.02;4.15;;;13.60;99.90;;;;;;6267017;22;20016;-80
2022/10/04 00:10:31;;;;;;;7.93;3.97;;;13.60;99.90;;;;;;6266827;22;20023;-79
2022/10/04 00:13:04;;;;;;;11.32;3.92;;;13.60;99.90;;;;;;6266874;22;20016;-80
2022/10/04 00:15:32;;;;;;;12.23;3.95;;;13.10;99.90;;;;;;6240116;22;20016;-80
2022/10/04 00:18:07;;;;;;;8.68;4.03;;;13.60;99.90;;;;;;6241292;22;20023;-79
2022/10/04 00:20:52;;;;;;;11.70;3.95;;;13.60;99.90;;;;;;6241131;22;20016;-79
2022/10/04 00:23:23;;;;;;;9.82;4.40;;;13.60;99.90;;;;;;6240970;22;20016;-80
2022/10/04 00:26:01;;;;;;;14.35;4.50;;;13.60;99.90;;;;;;6266919;22;20019;-80
2022/10/04 00:28:41;;;;;;;10.88;4.57;;;13.60;99.90;;;;;;6266011;22;20072;-80
2022/10/04 00:31:13;;;;;;;12.55;4.93;;;13.60;99.90;;;;;;6266414;22;20330;-80
2022/10/04 00:34:01;;;;;;;9.63;3.70;;;13.60;99.90;;;;;;6265644;22;20093;-79
2022/10/04 00:36:53;;;;;;;11.55;4.13;;;13.60;99.90;;;;;;6254103;22;20015;-80
2022/10/04 00:39:38;;;;;;;12.88;4.95;;;13.60;99.90;;;;;;6241473;22;20016;-80
2022/10/04 00:42:21;;;;;;;12.65;4.50;;;13.50;99.90;;;;;;6268987;22;20070;-80
2022/10/04 00:45:14;;;;;;;15.93;4.60;;;13.50;99.90;;;;;;6242377;22;20015;-80
2022/10/04 00:47:46;;;;;;;8.90;4.45;;;13.50;99.90;;;;;;6267974;22;20434;-80
2022/10/04 00:50:30;;;;;;;11.57;4.88;;;13.50;99.90;;;;;;6242283;22;20438;-79
2022/10/04 00:52:58;;;;;;;8.55;4.63;;;13.60;99.90;;;;;;6243493;22;20030;-82
2022/10/04 00:55:45;;;;;;;7.40;4.25;;;13.50;99.90;;;;;;6267422;22;20026;-82
2022/10/04 00:58:21;;;;;;;10.98;4.40;;;13.50;99.90;;;;;;6268470;22;20016;-79
2022/10/04 01:00:48;;;;;;;15.77;4.80;;;13.50;99.90;;;;;;6268828;22;20023;-79
2022/10/04 01:03:20;;;;;;;8.95;4.78;;;13.40;99.90;;;;;;6242973;22;20458;-82
2022/10/04 01:05:55;;;;;;;9.13;4.72;;;13.40;99.90;;;;;;6268547;22;20016;-79
2022/10/04 01:08:38;;;;;;;12.65;5.25;;;13.40;99.90;;;;;;6242729;22;20016;-80
2022/10/04 01:11:12;;;;;;;10.43;4.78;;;13.40;99.90;;;;;;6244083;22;20076;-80
2022/10/04 01:13:58;;;;;;;8.73;4.60;;;13.30;99.90;;;;;;6243186;22;20090;-80
2022/10/04 01:16:25;;;;;;;;;;;13.30;99.90;;;;;;6242442;22;20084;-80
2022/10/04 01:18:51;;;;;;;8.20;4.53;;;13.20;99.90;;;;;;6268582;22;19919;-80
2022/10/04 01:21:19;;;;;;;9.30;4.70;;;13.20;99.90;;;;;;6216654;22;20055;-79
2022/10/04 01:23:48;;;;;;;9.90;4.97;;;13.20;99.90;;;;;;6242340;22;20019;-80
2022/10/04 01:26:29;;;;;;;9.50;4.43;;;13.10;99.90;;;;;;6267830;22;20030;-79
2022/10/04 01:29:06;;;;;;;12.75;5.43;;;13.10;99.90;;;;;;6243107;22;20058;-79
2022/10/04 01:31:35;;;;;;;9.60;5.10;;;13.00;99.90;;;;;;6268569;22;20104;-79
2022/10/04 01:34:04;;;;;;;8.07;4.90;;;13.00;99.90;;;;;;6241846;22;20020;-79
2022/10/04 01:36:30;;;;;;;13.18;5.18;;;12.90;99.90;;;;;;6242141;22;20020;-79
2022/10/04 01:38:56;;;;;;;12.68;5.45;;;12.90;99.90;;;;;;6243814;22;20066;-79
2022/10/04 01:41:54;;;;;;;10.27;5.20;;;12.80;99.90;;;;;;6217194;22;20019;-79
2022/10/04 01:44:32;;;;;;;10.45;5.10;;;12.80;99.90;;;;;;6240083;22;20020;-79
2022/10/04 01:47:02;;;;;;;9.38;5.00;;;12.70;99.90;;;;;;6268126;22;20403;-80
2022/10/04 01:49:32;;;;;;;13.10;5.53;;;12.60;99.90;;;;;;6267986;22;20022;-80
2022/10/04 01:52:00;;;;;;;10.23;5.68;;;12.60;99.90;;;;;;6242948;22;20024;-79
2022/10/04 01:54:35;;;;;;;13.95;5.38;;;12.50;99.90;;;;;;6267361;22;20390;-80
2022/10/04 01:57:09;;;;;;;10.18;5.50;;;12.50;99.90;;;;;;6243104;22;20073;-80
2022/10/04 02:00:05;;;;;;;11.50;5.38;;;12.50;99.90;;;;;;6267906;22;20016;-80
2022/10/04 02:02:34;;;;;;;11.32;5.50;;;12.40;99.90;;;;;;6264039;22;20119;-79
2022/10/04 02:05:02;;;;;;;13.85;6.25;;;12.40;99.90;;;;;;6242214;22;20126;-80
2022/10/04 02:07:31;;;;;;;10.35;6.10;;;12.30;99.90;;;;;;6267403;22;20016;-80
2022/10/04 02:10:00;;;;;;;10.95;5.85;;;12.30;99.90;;;;;;6241782;22;20019;-78
2022/10/04 02:12:27;;;;;;;8.55;5.55;;;12.20;99.90;;;;;;6241816;22;20027;-80
2022/10/04 02:14:54;;;;;;;11.98;6.30;;;12.20;99.90;;;;;;6242196;22;20394;-80
2022/10/04 02:17:30;;;;;;;12.05;5.70;;;12.10;99.90;;;;;;6217343;22;20344;-80
2022/10/04 02:19:58;;;;;;;9.65;5.18;;;12.10;99.90;;;;;;6241232;22;20030;-80
2022/10/04 02:22:25;;;;;;;10.20;5.55;;;12.10;99.90;;;;;;6216724;22;20012;-79
2022/10/04 02:24:55;;;;;;;11.07;6.07;;;12.00;99.90;;;;;;6215391;22;20703;-80
2022/10/04 02:27:28;;;;;;;11.75;6.22;;;12.00;99.90;;;;;;6216573;22;20020;-80
2022/10/04 02:30:00;;;;;;;9.95;5.70;;;11.90;99.90;;;;;;6241886;22;20073;-79
2022/10/04 02:35:12;;;;;;;8.07;5.15;;;11.90;99.90;;;;;;6240814;22;20016;-79
2022/10/04 02:37:38;;;;;;;9.73;5.85;;;11.80;99.90;;;;;;6216926;22;20012;-79
2022/10/04 02:40:12;;;;;;;11.80;6.13;;;11.80;99.90;;;;;;6241181;22;20027;-80
2022/10/04 02:42:56;;;;;;;9.43;5.35;;;11.80;99.90;;;;;;6242640;22;20019;-80
2022/10/04 02:45:54;;;;;;;8.98;5.80;;;11.70;99.90;;;;;;6241483;22;20039;-80
2022/10/04 02:48:26;;;;;;;12.13;5.57;;;11.70;99.90;;;;;;6242384;22;20360;-80
2022/10/04 02:50:56;;;;;;;10.93;6.25;;;11.60;99.90;;;;;;6242186;22;20023;-80
2022/10/04 02:53:43;;;;;;;9.82;5.80;;;11.60;99.90;;;;;;6216629;22;20115;-79
2022/10/04 02:56:11;;;;;;;11.07;6.07;;;11.60;99.90;;;;;;6241593;22;20077;-80
2022/10/04 02:58:39;;;;;;;13.48;6.47;;;10.80;99.90;;;;;;6241462;22;20012;-79
2022/10/04 03:01:05;;;;;;;9.32;6.35;;;11.50;99.90;;;;;;6216524;22;20059;-80
2022/10/04 03:03:46;;;;;;;12.85;6.47;;;11.50;99.90;;;;;;6218103;22;20328;-79
2022/10/04 03:06:17;;;;;;;8.98;5.80;;;11.40;99.90;;;;;;6253874;22;20018;-79
2022/10/04 03:08:45;;;;;;;10.07;6.10;;;11.40;99.90;;;;;;6256526;22;20451;-79
2022/10/04 03:11:14;;;;;;;10.45;6.97;;;11.30;99.90;;;;;;6225389;22;20023;-80
2022/10/04 03:13:46;;;;;;;8.95;6.45;;;11.30;99.90;;;;;;6195066;22;20313;-80
2022/10/04 03:16:12;;;;;;;8.90;6.18;;;11.30;99.90;;;;;;6241654;22;20706;-81
2022/10/04 03:18:38;;;;;;;10.05;6.40;;;11.30;99.90;;;;;;6230209;22;20035;-79
2022/10/04 03:21:08;;;;;;;11.35;5.68;;;9.90;99.90;;;;;;6266789;22;20034;-80
2022/10/04 03:23:34;;;;;;;10.98;6.82;;;11.20;99.90;;;;;;6267117;22;20095;-79
2022/10/04 03:26:05;;;;;;;9.65;6.32;;;11.20;99.90;;;;;;6242003;22;20066;-80
2022/10/04 03:28:31;;;;;;;9.38;6.53;;;11.20;99.90;;;;;;6266586;22;20015;-80
2022/10/04 03:30:57;;;;;;;11.15;6.53;;;11.10;99.90;;;;;;6241982;22;20423;-80
2022/10/04 03:33:25;;;;;;;12.30;6.70;;;11.10;99.90;;;;;;6215245;22;20016;-79
2022/10/04 03:35:54;;;;;;;11.90;6.28;;;11.10;99.90;;;;;;6241092;22;20019;-80
2022/10/04 03:38:21;;;;;;;8.45;6.47;;;11.10;99.90;;;;;;6241392;22;20027;-80
2022/10/04 03:40:58;;;;;;;10.20;6.45;;;11.10;99.90;;;;;;6240479;22;20054;-80
2022/10/04 03:43:33;;;;;;;11.23;6.22;;;11.00;99.90;;;;;;6266804;22;20161;-79
2022/10/04 03:46:04;;;;;;;11.87;7.30;;;11.00;99.90;;;;;;6241409;22;20465;-78
2022/10/04 03:48:43;;;;;;;11.82;6.93;;;11.00;99.90;;;;;;6240703;22;20019;-78
2022/10/04 03:51:15;;;;;;;12.40;6.97;;;11.00;99.90;;;;;;6241120;22;20019;-80
2022/10/04 03:53:45;;;;;;;9.27;6.30;;;10.90;99.90;;;;;;6265009;22;20514;-81
2022/10/04 03:56:16;;;;;;;12.43;6.38;;;10.90;99.90;;;;;;6265694;22;20125;-79
2022/10/04 03:58:42;;;;;;;13.10;6.60;;;10.90;99.90;;;;;;6266487;22;20038;-79
2022/10/04 04:01:19;;;;;;;9.40;6.03;;;10.90;99.90;;;;;;6241433;22;20020;-79
2022/10/04 04:03:47;;;;;;;11.23;6.68;;;10.90;99.90;;;;;;6241529;22;20366;-79
2022/10/04 04:06:16;;;;;;;9.98;6.65;;;10.80;99.90;;;;;;6241525;22;20015;-79
2022/10/04 04:08:46;;;;;;;11.23;6.57;;;10.80;99.90;;;;;;6267398;22;20335;-79
2022/10/04 04:11:23;;;;;;;11.50;6.68;;;10.80;99.90;;;;;;6267633;22;20023;-79
2022/10/04 04:14:17;;;;;;;11.95;7.13;;;10.80;99.90;;;;;;6242492;22;20038;-79
2022/10/04 04:16:43;;;;;;;10.45;7.95;;;10.80;99.90;;;;;;6243688;22;20022;-81
2022/10/04 04:19:14;;;;;;;11.32;8.27;;;10.80;99.90;;;;;;6240008;22;20019;-81
2022/10/04 04:21:41;;;;;;;13.90;8.82;;;10.80;99.90;;;;;;6268677;22;20026;-78
2022/10/04 04:24:18;;;;;;;12.98;7.95;;;10.80;99.90;;;;;;6268644;22;20028;-78
2022/10/04 04:26:53;;;;;;;10.20;8.25;;;10.90;99.90;;;;;;6268139;22;20042;-78
2022/10/04 04:29:32;;;;;;;12.63;8.55;;;10.90;99.90;;;;;;6243950;22;20789;-78
2022/10/04 04:32:11;;;;;;;13.80;8.70;;;10.90;99.90;;;;;;6243904;22;20470;-78
2022/10/04 04:35:05;;;;;;;10.43;8.02;;;10.90;99.90;;;;;;6242080;22;20058;-79
2022/10/04 04:37:32;;;;;;;16.33;8.63;;;11.00;99.90;;;;;;6242721;22;20015;-78
2022/10/04 04:40:20;;;;;;;12.75;10.07;;;11.00;99.90;;;;;;6242667;22;20016;-79
2022/10/04 04:42:47;;;;;;;15.48;9.20;;;11.00;99.90;;;;;;6268054;22;20016;-79
2022/10/04 04:45:21;;;;;;;16.08;9.43;;;10.90;99.90;;;;;;6267643;22;20020;-78
2022/10/04 04:47:54;;;;;;;11.65;8.35;;;11.00;99.90;;;;;;6268471;22;20015;-79
2022/10/04 04:50:36;;;;;;;11.68;8.57;;;11.00;99.90;;;;;;6268637;22;20020;-79
2022/10/04 04:53:14;;;;;;;13.27;9.75;;;11.00;99.90;;;;;;6268775;22;20424;-79
2022/10/04 04:55:47;;;;;;;12.18;8.57;;;10.80;99.90;;;;;;6267438;22;20019;-79
2022/10/04 04:58:23;;;;;;;16.67;9.15;;;10.90;99.90;;;;;;6243875;22;20095;-79
2022/10/04 05:01:13;;;;;;;16.25;8.95;;;10.90;99.90;;;;;;6268729;22;20027;-79
2022/10/04 05:03:39;;;;;;;14.70;8.88;;;10.90;99.90;;;;;;6267902;22;20321;-79
2022/10/04 05:06:25;;;;;;;12.93;8.77;;;10.90;99.90;;;;;;6242537;22;20069;-79
2022/10/04 05:08:51;;;;;;;14.90;9.63;;;10.90;99.90;;;;;;6267695;22;20024;-78
2022/10/04 05:11:20;;;;;;;11.70;9.27;;;10.90;99.90;;;;;;6268160;22;20015;-79
2022/10/04 05:13:54;;;;;;;15.35;10.10;;;10.90;99.90;;;;;;6267580;22;20019;-80
2022/10/04 05:16:26;;;;;;;14.25;10.27;;;10.90;99.90;;;;;;6242714;22;20102;-79
2022/10/04 05:19:02;;;;;;;12.75;10.13;;;10.90;99.90;;;;;;6268687;22;20069;-79
2022/10/04 05:21:30;;;;;;;12.02;9.85;;;10.90;99.90;;;;;;6267526;22;20023;-79
2022/10/04 05:24:05;;;;;;;18.88;11.05;;;10.90;99.90;;;;;;6267906;22;20022;-79
2022/10/04 05:26:31;;;;;;;15.90;10.70;;;10.90;99.90;;;;;;6243181;22;20016;-80
2022/10/04 05:29:06;;;;;;;14.68;10.73;;;10.90;99.90;;;;;;6243102;22;20026;-80
2022/10/04 05:31:59;;;;;;;19.30;11.00;;;10.90;99.90;;;;;;6243795;22;20024;-79
2022/10/04 05:34:29;;;;;;;16.10;10.80;;;10.90;99.90;;;;;;6268398;22;20026;-78
2022/10/04 05:37:19;;;;;;;17.75;11.35;;;10.80;99.90;;;;;;6243845;22;20085;-79
2022/10/04 05:40:03;;;;;;;15.07;11.13;;;10.90;99.90;;;;;;6242935;22;20024;-80
2022/10/04 05:42:50;;;;;;;17.05;11.73;;;10.90;99.90;;;;;;6244180;22;20068;-81
2022/10/04 05:45:22;;;;;;;18.55;11.55;;;10.90;99.90;;;;;;6242492;22;20447;-82
2022/10/04 05:47:56;;;;;;;16.30;12.50;;;10.90;99.90;;;;;;6243917;22;20461;-81
2022/10/04 05:50:39;;;;;;;16.67;11.52;;;10.90;99.90;;;;;;6242772;22;20016;-82
2022/10/04 05:53:34;;;;;;;17.20;13.63;;;10.90;99.90;;;;;;6269454;22;20020;-80
2022/10/04 05:56:21;;;;;;;21.98;13.95;;;10.90;99.90;;;;;;6268983;22;20077;-81
2022/10/04 05:59:11;;;;;;;15.77;12.93;;;10.90;99.90;;;;;;6269731;22;20444;-79
2022/10/04 06:01:49;;;;;;;17.38;12.73;;;10.80;99.90;;;;;;6268330;22;20020;-81
2022/10/04 06:04:25;;;;;;;18.55;12.68;;;10.80;99.90;;;;;;6242471;22;20035;-79
2022/10/04 06:07:08;;;;;;;16.02;11.77;;;10.80;99.90;;;;;;6242901;22;20016;-80
2022/10/04 06:09:51;;;;;;;16.42;12.20;;;10.80;99.90;;;;;;6266898;22;20020;-79
2022/10/04 06:12:32;;;;;;;16.58;12.18;;;10.80;99.90;;;;;;6265960;22;20019;-80
2022/10/04 06:15:10;;;;;;;18.90;11.75;;;10.80;99.90;;;;;;6242473;22;20027;-81
2022/10/04 06:17:58;;;;;;;18.83;11.52;;;10.80;99.90;;;;;;6268019;22;20102;-80
2022/10/04 06:20:42;;;;;;;19.70;10.82;;;10.80;99.90;;;;;;6243188;22;20465;-80
2022/10/04 06:23:29;;;;;;;15.23;10.52;;;10.80;99.90;;;;;;6242592;22;20023;-80
2022/10/04 06:26:02;;;;;;;14.80;9.65;;;10.90;99.90;;;;;;6241776;22;20032;-79
2022/10/04 06:28:39;;;;;;;15.27;10.20;;;10.90;99.90;;;;;;6217378;22;20020;-78
2022/10/04 06:31:26;;;;;;;15.70;9.48;;;10.90;99.90;;;;;;6243169;22;20073;-78
2022/10/04 06:34:16;;;;;;;15.20;9.88;;;11.00;99.90;;;;;;6216308;22;20051;-78
2022/10/04 06:36:53;;;;;;;16.67;9.65;;;11.00;99.90;;;;;;6240468;22;20022;-78
2022/10/04 06:39:40;;;;;;;15.82;10.02;;;11.10;99.90;;;;;;6216625;22;20094;-79
2022/10/04 06:42:18;;;;;;;15.63;8.68;;;11.20;99.90;;;;;;6217721;22;20459;-79
2022/10/04 06:44:50;;;;;;;16.30;9.90;;;11.20;99.90;;;;;;6249854;22;20370;-79
2022/10/04 06:47:39;;;;;;;15.85;9.35;;;11.30;99.90;;;;;;6219969;22;20022;-79
2022/10/04 06:50:13;;;;;;;15.10;9.75;;;11.40;99.90;;;;;;6243358;22;20020;-79
2022/10/04 06:52:53;;;;;;;12.70;9.45;;;11.40;99.90;;;;;;6240073;22;20073;-78
2022/10/04 06:55:24;;;;;;;16.83;10.30;;;11.50;99.90;;;;;;6220409;22;20059;-79
2022/10/04 06:58:35;;;;;;;17.08;10.43;;;11.60;99.90;;;;;;6218965;22;20018;-79
2022/10/04 07:01:23;;;;;;;13.93;10.77;;;11.70;99.90;;;;;;6215946;22;20149;-80
2022/10/04 07:04:00;;;;;;;14.52;9.88;;;11.80;99.90;;;;;;6244412;22;20043;-79
2022/10/04 07:07:22;;;;;;;15.30;9.73;;;11.90;99.90;;;;;;6245735;22;20078;-79
2022/10/04 07:09:43;;;;;;;16.48;9.90;;;12.00;99.90;;;;;;6210795;22;20031;-79
2022/10/04 07:12:15;;;;;;;16.77;10.30;;;12.00;99.90;;;;;;6244971;22;20024;-79
2022/10/04 07:14:49;;;;;;;14.82;9.45;;;12.10;99.90;;;;;;6219432;22;20023;-79
2022/10/04 07:17:30;;;;;;;14.15;9.73;;;12.10;99.90;;;;;;6217380;22;20047;-79
2022/10/04 07:19:57;;;;;;;19.42;9.88;;;12.20;99.90;;;;;;6266965;22;20270;-78
2022/10/04 07:22:35;;;;;;;14.07;9.52;;;12.20;99.90;;;;;;6267204;22;20030;-79
2022/10/04 07:25:22;;;;;;;19.95;10.70;;;12.30;99.90;;;;;;6239600;22;20795;-79
2022/10/04 07:31:26;;;;;;;13.80;10.00;;;12.40;99.90;;;;;;6267041;22;20071;-79
2022/10/04 07:34:10;;;;;;;17.08;10.45;;;12.50;99.90;;;;;;6240610;22;20019;-79
2022/10/04 07:36:45;;;;;;;15.43;10.40;;;12.70;99.90;;;;;;6266262;22;20015;-77
2022/10/04 07:39:28;;;;;;;20.48;10.07;;;12.70;99.90;;;;;;6266398;22;20016;-79
2022/10/04 07:41:58;;;;;;;14.93;10.48;;;12.70;99.90;;;;;;6240089;22;20427;-78
2022/10/04 07:44:34;;;;;;;16.67;10.23;;;12.90;99.90;;;;;;6240390;22;20031;-79
2022/10/04 07:47:04;;;;;;;15.30;10.32;;;12.80;99.90;;;;;;6266133;22;20019;-79
2022/10/04 07:49:36;;;;;;;17.45;11.30;;;12.90;99.90;;;;;;6240114;22;20023;-79
2022/10/04 07:52:11;;;;;;;16.50;10.75;;;13.00;99.90;;;;;;6267776;22;20106;-80
2022/10/04 07:54:51;;;;;;;16.30;10.35;;;13.00;99.90;;;;;;6266971;22;20015;-79
2022/10/04 07:58:02;;;;;;;15.65;10.75;;;13.10;99.90;;;;;;6242519;22;20089;-79
2022/10/04 08:01:15;;;;;;;18.13;11.40;;;13.20;99.90;;;;;;6094939;23;20057;-79
2022/10/04 08:04:13;;;;;;;18.92;11.50;;;13.50;99.90;;;;;;6087268;23;20017;-78
2022/10/04 08:06:55;;;;;;;16.10;11.50;;;13.70;99.90;;;;;;6241000;22;20012;-79
2022/10/04 08:09:38;;;;;;;21.70;11.75;;;13.90;99.90;;;;;;6265586;22;20015;-79
2022/10/04 08:12:25;;;;;;;15.77;10.90;;;14.10;99.90;;;;;;6266066;22;20455;-79
2022/10/04 08:15:12;;;;;;;15.95;10.52;;;14.20;99.90;;;;;;6264554;22;20026;-79
2022/10/04 08:17:40;;;;;;;15.98;10.30;;;14.30;99.90;;;;;;6240088;22;20011;-78
2022/10/04 08:20:06;;;;;;;14.57;9.90;;;14.30;99.90;;;;;;6241037;22;20388;-79
2022/10/04 08:22:58;;;;;;;13.77;9.55;;;14.20;99.90;;;;;;6241116;22;20020;-78
2022/10/04 08:25:32;;;;;;;16.35;10.55;;;14.20;99.90;;;;;;6215886;22;20053;-79
2022/10/04 08:31:03;;;;;;;16.52;10.60;;;14.20;99.90;;;;;;6240897;22;20016;-80
2022/10/04 08:33:50;;;;;;;15.38;10.27;;;14.20;99.90;;;;;;6241020;22;20016;-79
2022/10/04 08:39:22;;;;;;;16.92;10.68;;;14.30;99.90;;;;;;6240701;22;20023;-80
2022/10/04 08:42:08;;;;;;;;;;;14.50;99.90;;;;;;6243534;22;20012;-81
2022/10/04 08:44:55;;;;;;;16.70;10.93;;;14.60;99.90;;;;;;6218983;22;20331;-81
2022/10/04 08:47:28;;;;;;;15.07;10.82;;;14.80;99.90;;;;;;6218535;22;20062;-81
2022/10/04 08:50:15;;;;;;;14.55;10.85;;;15.00;99.90;;;;;;6218597;22;20455;-80
2022/10/04 08:52:50;;;;;;;13.05;9.93;;;15.10;99.90;;;;;;6215979;22;20077;-80
2022/10/04 08:55:47;;;;;;;19.45;11.60;;;15.10;99.90;;;;;;6216163;22;20020;-80
2022/10/04 08:58:33;;;;;;;18.50;10.90;;;15.20;99.90;;;;;;6215813;22;20067;-81
2022/10/04 09:01:37;;;;;;;14.73;10.57;;;15.20;99.90;;;;;;6219312;22;20030;-80
2022/10/04 09:04:51;;;;;;;15.90;11.52;;;15.20;99.90;;;;;;6135449;22;20019;-80
2022/10/04 09:07:35;;;;;;;15.18;10.85;;;15.20;99.90;;;;;;6085016;22;20477;-81
2022/10/04 09:10:33;;;;;;;18.25;11.30;;;15.20;99.90;;;;;;6243025;22;20062;-81
2022/10/04 09:13:17;;;;;;;14.10;10.38;;;15.20;99.90;;;;;;6244354;22;20023;-80
2022/10/04 09:16:02;;;;;;;17.40;11.85;;;15.20;99.90;;;;;;6245624;22;20407;-80
2022/10/04 09:18:47;;;;;;;14.73;10.23;;;15.20;99.90;;;;;;6223723;22;20030;-79
2022/10/04 09:21:48;;;;;;;14.50;11.20;;;15.20;99.90;;;;;;6268696;22;20020;-80
2022/10/04 09:24:33;;;;;;;17.40;11.32;;;15.30;99.90;;;;;;6269683;22;20613;-80
2022/10/04 09:27:11;;;;;;;14.30;11.23;;;15.40;99.90;;;;;;6241901;22;20019;-79
2022/10/04 09:30:06;;;;;;;16.25;11.15;;;15.40;99.90;;;;;;6241854;22;20019;-80
2022/10/04 09:33:04;;;;;;;17.52;10.48;;;15.50;99.90;;;;;;6112373;22;20021;-82
2022/10/04 09:35:58;;;;;;;16.55;11.30;;;15.70;99.90;;;;;;6243347;22;20019;-79
2022/10/04 09:38:50;;;;;;;15.50;10.90;;;15.90;99.90;;;;;;6241150;22;20153;-81
2022/10/04 09:41:33;;;;;;;16.40;11.73;;;16.10;99.90;;;;;;6240010;22;20023;-81
2022/10/04 09:44:15;;;;;;;14.95;11.40;;;16.90;99.90;;;;;;6266813;22;20085;-80
2022/10/04 09:47:06;;;;;;;18.00;11.65;;;16.40;99.90;;;;;;6242259;22;20016;-81
2022/10/04 09:50:13;;;;;;;17.70;11.95;;;16.50;99.90;;;;;;6242548;22;20112;-80
2022/10/04 09:53:12;;;;;;;16.13;11.05;;;16.50;99.90;;;;;;6244951;22;20054;-85
2022/10/04 09:55:50;;;;;;;14.13;10.70;;;16.50;99.90;;;;;;6270160;22;20016;-79
2022/10/04 09:58:42;;;;;;;13.45;11.25;;;16.50;99.90;;;;;;6245161;22;20384;-81
2022/10/04 10:01:18;;;;;;;14.35;11.18;;;16.40;99.90;;;;;;6267664;22;20015;-80
2022/10/04 10:04:02;;;;;;;18.85;11.88;;;16.30;99.90;;;;;;6241627;22;20081;-80
2022/10/04 10:06:33;;;;;;;17.83;13.23;;;16.30;99.90;;;;;;6266039;22;20754;-80
2022/10/04 10:09:20;;;;;;;21.02;12.45;;;16.20;99.90;;;;;;6267768;22;20019;-80
2022/10/04 10:15:22;;;;;;;16.40;13.63;;;16.20;99.90;;;;;;6267818;22;20077;-80
2022/10/04 10:18:07;;;;;;;19.15;13.90;;;16.10;99.90;;;;;;6275752;22;20030;-80
2022/10/04 10:20:42;;;;;;;18.10;12.60;;;16.10;99.90;;;;;;6225059;22;20027;-80
2022/10/04 10:23:38;;;;;;;16.33;13.20;;;16.10;99.90;;;;;;6216984;22;20529;-80
2022/10/04 10:26:25;;;;;;;18.23;14.13;;;16.20;99.90;;;;;;6215541;22;20016;-79
2022/10/04 10:29:29;;;;;;;16.52;13.15;;;16.20;99.90;;;;;;6217033;22;20660;-80
2022/10/04 10:32:01;;;;;;;17.20;13.15;;;16.20;99.90;;;;;;6241462;22;20296;-81
2022/10/04 10:34:54;;;;;;;17.08;12.95;;;16.10;99.90;;;;;;6242169;22;20025;-81
2022/10/04 10:37:54;;;;;;;16.20;12.35;;;16.20;99.90;;;;;;6218768;22;20174;-80
2022/10/04 10:40:35;;;;;;;16.98;13.70;;;16.30;99.90;;;;;;6244101;22;20019;-81
2022/10/04 10:43:04;;;;;;;19.17;14.30;;;16.30;99.90;;;;;;6270811;22;20035;-80
2022/10/04 10:45:51;;;;;;;16.42;13.18;;;16.30;99.90;;;;;;6244186;22;20486;-79
2022/10/04 10:48:26;;;;;;;18.77;14.10;;;16.40;99.90;;;;;;6218510;22;20019;-80
2022/10/04 10:51:09;;;;;;;17.50;13.13;;;16.50;99.90;;;;;;6219071;22;20024;-78
2022/10/04 10:53:58;;;;;;;16.05;14.15;;;16.60;99.90;;;;;;6245319;22;20120;-79
2022/10/04 10:56:56;;;;;;;15.85;13.55;;;16.90;99.90;;;;;;6150136;22;20074;-79
2022/10/04 10:59:53;;;;;;;16.25;12.65;;;17.00;99.90;;;;;;6170007;22;20016;-80
2022/10/04 11:02:34;;;;;;;16.17;12.43;;;17.20;99.90;;;;;;6244238;22;20012;-80
2022/10/04 11:05:21;;;;;;;14.27;11.60;;;17.40;99.90;;;;;;6218123;22;20325;-80
2022/10/04 11:07:54;;;;;;;14.65;11.23;;;17.70;99.90;;;;;;6244729;22;20035;-80
2022/10/04 11:10:42;;;;;;;13.20;11.90;;;18.10;99.90;;;;;;6220498;22;20015;-78
2022/10/04 11:13:39;;;;;;;13.48;10.77;;;18.30;99.90;;;;;;6247927;22;20149;-80
2022/10/04 11:16:08;;;;;;;13.98;10.68;;;18.70;99.90;;;;;;6217869;22;20524;-81
2022/10/04 11:19:05;;;;;;;12.63;10.82;;;19.00;99.90;;;;;;6219743;22;20047;-79
2022/10/04 11:21:49;;;;;;;13.70;11.65;;;19.30;99.90;;;;;;6241742;22;20037;-80
2022/10/04 11:24:45;;;;;;;12.68;11.40;;;19.70;99.90;;;;;;6239213;22;20019;-80
2022/10/04 11:27:14;;;;;;;12.57;10.82;;;20.30;99.90;;;;;;6238306;22;20300;-80
2022/10/04 11:30:15;;;;;;;14.77;11.45;;;21.00;99.90;;;;;;6264983;22;20055;-80
2022/10/04 11:33:02;;;;;;;15.80;11.45;;;21.60;99.90;;;;;;6265071;22;20011;-79
2022/10/04 11:35:57;;;;;;;12.25;10.65;;;22.00;99.90;;;;;;6239561;22;20752;-80
2022/10/04 11:39:00;;;;;;;12.38;10.23;;;22.60;99.90;;;;;;6238964;22;20016;-80
2022/10/04 11:41:35;;;;;;;15.13;9.35;;;23.30;99.90;;;;;;6239512;22;20084;-80
2022/10/04 11:44:58;;;;;;;11.97;10.30;;;23.70;99.90;;;;;;6265507;22;20812;-80
2022/10/04 11:47:39;;;;;;;11.80;9.45;;;24.00;99.90;;;;;;6118196;23;20120;-80
2022/10/04 11:50:32;;;;;;;14.20;9.65;;;24.50;99.90;;;;;;6093444;23;20061;-79
2022/10/04 11:53:20;;;;;;;12.77;9.20;;;24.70;99.90;;;;;;6226117;22;20062;-80
2022/10/04 11:56:18;;;;;;;11.48;8.38;;;24.90;99.90;;;;;;6241765;22;20024;-80
2022/10/04 11:59:25;;;;;;;9.57;7.65;;;25.30;99.90;;;;;;6243406;22;20019;-80
2022/10/04 12:02:22;;;;;;;11.90;8.10;;;25.70;99.90;;;;;;6242318;22;20031;-80
2022/10/04 12:05:18;;;;;;;14.45;8.25;;;25.60;99.40;;;;;;6242926;22;20023;-80
2022/10/04 12:07:49;;;;;;;11.13;8.40;;;25.40;98.50;;;;;;6242128;22;20431;-80
2022/10/04 12:10:37;;;;;;;9.98;7.22;;;25.20;99.60;;;;;;6242086;22;20059;-81
2022/10/04 12:13:16;;;;;;;9.30;7.63;;;25.10;98.40;;;;;;6268419;22;20085;-80
2022/10/04 12:15:43;;;;;;;8.95;7.53;;;25.10;99.90;;;;;;6267978;22;20098;-81
2022/10/04 12:18:51;;;;;;;9.38;8.30;;;24.90;99.90;;;;;;6267117;22;20073;-80
2022/10/04 12:21:44;;;;;;;10.50;7.85;;;24.50;98.70;;;;;;6215995;22;20022;-80
2022/10/04 12:24:22;;;;;;;11.75;8.75;;;24.10;99.90;;;;;;6242209;22;20474;-80
2022/10/04 12:27:05;;;;;;;10.07;7.45;;;24.00;99.90;;;;;;6215710;22;20066;-80
2022/10/04 12:29:50;;;;;;;11.45;8.18;;;24.50;99.90;;;;;;6217268;22;20070;-80
2022/10/04 12:32:23;;;;;;;9.80;7.57;;;24.50;99.90;;;;;;6242161;22;20016;-81
2022/10/04 12:34:52;;;;;;;11.30;7.40;;;24.50;99.90;;;;;;6215668;22;20042;-80
2022/10/04 12:37:24;;;;;;;11.10;7.28;;;24.70;99.90;;;;;;6216130;22;20016;-81
2022/10/04 12:40:10;;;;;;;10.90;7.20;;;24.60;99.90;;;;;;6219249;22;20019;-80
2022/10/04 12:42:55;;;;;;;9.27;7.65;;;24.70;99.90;;;;;;6197282;22;20913;-81
2022/10/04 12:45:33;;;;;;;9.85;7.57;;;24.70;99.90;;;;;;6217578;22;20090;-80
2022/10/04 12:48:33;;;;;;;9.68;6.60;;;24.80;99.90;;;;;;6243819;22;20058;-82
2022/10/04 12:51:07;;;;;;;8.02;6.65;;;25.00;99.90;;;;;;6220502;22;20027;-81
2022/10/04 12:53:39;;;;;;;9.57;6.73;;;25.00;99.70;;;;;;6220474;22;20023;-81
2022/10/04 12:56:29;;;;;;;10.27;7.18;;;25.10;99.90;;;;;;6221000;22;20024;-81
2022/10/04 12:59:14;;;;;;;9.30;6.88;;;25.10;99.10;;;;;;6219830;22;20066;-82
2022/10/04 13:02:26;;;;;;;9.25;7.00;;;25.00;99.30;;;;;;6244708;22;20026;-81
2022/10/04 13:05:16;;;;;;;8.82;6.80;;;24.70;99.00;;;;;;6125493;23;20053;-81
2022/10/04 13:07:54;;;;;;;8.88;6.45;;;24.70;98.80;;;;;;6246865;22;20015;-80
2022/10/04 13:10:27;;;;;;;7.63;6.22;;;24.70;99.90;;;;;;6221188;22;20019;-80
2022/10/04 13:13:44;;;;;;;7.70;5.57;;;24.80;99.30;;;;;;6222322;22;20150;-82
2022/10/04 13:16:34;;;;;;;9.43;6.00;;;24.70;98.20;;;;;;6154312;22;20451;-81
2022/10/04 13:19:24;;;;;;;8.00;5.85;;;24.30;98.80;;;;;;6255230;22;20011;-80
2022/10/04 13:22:20;;;;;;;8.05;5.80;;;24.20;99.20;;;;;;6272281;22;20027;-80
2022/10/04 13:24:56;;;;;;;;;;;23.90;99.40;;;;;;6273010;22;20027;-80
2022/10/04 13:27:44;;;;;;;7.37;5.30;;;23.60;98.50;;;;;;6271275;22;19919;-81
2022/10/04 13:30:25;;;;;;;8.15;5.72;;;23.50;99.70;;;;;;6271096;22;20308;-80
2022/10/04 13:33:09;;;;;;;8.57;5.03;;;23.30;99.70;;;;;;6272116;22;20020;-80
2022/10/04 13:36:10;;;;;;;6.68;5.00;;;23.30;99.90;;;;;;6272080;22;20363;-80
2022/10/04 13:38:45;;;;;;;8.40;5.35;;;22.90;99.40;;;;;;6184312;23;20048;-81
2022/10/04 13:41:30;;;;;;;6.90;5.30;;;22.60;99.90;;;;;;6232450;22;20023;-80
2022/10/04 13:44:12;;;;;;;6.90;4.82;;;22.30;99.90;;;;;;6246996;22;20095;-80
2022/10/04 13:46:56;;;;;;;7.93;5.13;;;22.40;99.90;;;;;;6272384;22;20069;-80
2022/10/04 13:49:47;;;;;;;7.47;4.82;;;22.20;99.90;;;;;;6247981;22;20023;-80
2022/10/04 13:58:52;;;;;;;6.82;4.97;;;21.80;99.90;;;;;;6271930;22;20024;-80
2022/10/04 14:01:59;;;;;;;8.93;5.55;;;21.50;99.90;;;;;;6271072;22;20442;-79
2022/10/04 14:04:55;;;;;;;7.70;5.03;;;21.30;99.90;;;;;;6245208;22;20257;-82